Waldheim, Canada
Current Conditions -  °F | °C
As of 7:00 PM on Wednesday 22 Oct 2014 (Local Time) from CYXE Reporting Station
Scattered Clouds Scattered Clouds  
Wind Chill:   Ceiling: Unl
Heat Index:   Visibility: 15mi
Dew Point:   Wind: 7mph
Humidity: 81%   Direction: 250°WSW
Pressure: 29.76"   Gusts: NA
Location:  52.62°N, 106.65°W
Report Text: CYXE 230100Z 25006KT 15SM SCT300 06/03 A2976 RMK CI3 SLP096
Loading
Personal Weather Stations






























Interactive Weather Map
Tropical Storm Tracking
New forecast layout! Learn more

10-Day Weather Forecast

Advertisements
Track Severe Weather on mobile